sensor_id;sensor_type;location;lat;lon;timestamp;temperature;humidity
44863;DHT22;30597;49.628;10.850;2023-04-03T00:01:20;19.70;49.90
44863;DHT22;30597;49.628;10.850;2023-04-03T00:03:46;19.70;50.00
44863;DHT22;30597;49.628;10.850;2023-04-03T00:06:12;19.70;50.00
44863;DHT22;30597;49.628;10.850;2023-04-03T00:08:38;19.60;50.00
44863;DHT22;30597;49.628;10.850;2023-04-03T00:11:05;19.60;50.10
44863;DHT22;30597;49.628;10.850;2023-04-03T00:13:31;19.60;50.10
44863;DHT22;30597;49.628;10.850;2023-04-03T00:15:57;19.60;50.10
44863;DHT22;30597;49.628;10.850;2023-04-03T00:18:23;19.60;50.10
44863;DHT22;30597;49.628;10.850;2023-04-03T00:20:49;19.60;50.20
44863;DHT22;30597;49.628;10.850;2023-04-03T00:23:15;19.50;50.00
44863;DHT22;30597;49.628;10.850;2023-04-03T00:25:40;19.50;50.10
44863;DHT22;30597;49.628;10.850;2023-04-03T00:28:06;19.60;50.20
44863;DHT22;30597;49.628;10.850;2023-04-03T00:30:32;19.50;50.20
44863;DHT22;30597;49.628;10.850;2023-04-03T00:32:58;19.60;50.40
44863;DHT22;30597;49.628;10.850;2023-04-03T00:35:24;19.50;50.20
44863;DHT22;30597;49.628;10.850;2023-04-03T00:37:54;19.50;50.30
44863;DHT22;30597;49.628;10.850;2023-04-03T00:40:22;19.60;50.50
44863;DHT22;30597;49.628;10.850;2023-04-03T00:42:51;19.50;50.40
44863;DHT22;30597;49.628;10.850;2023-04-03T00:45:34;19.50;50.50
44863;DHT22;30597;49.628;10.850;2023-04-03T00:48:01;19.50;50.50
44863;DHT22;30597;49.628;10.850;2023-04-03T00:50:29;19.40;50.50
44863;DHT22;30597;49.628;10.850;2023-04-03T00:52:56;19.40;50.50
44863;DHT22;30597;49.628;10.850;2023-04-03T00:55:22;19.40;50.70
44863;DHT22;30597;49.628;10.850;2023-04-03T00:57:49;19.40;50.60
44863;DHT22;30597;49.628;10.850;2023-04-03T01:00:19;19.40;50.70
44863;DHT22;30597;49.628;10.850;2023-04-03T01:02:45;19.40;50.80
44863;DHT22;30597;49.628;10.850;2023-04-03T01:05:11;19.40;50.70
44863;DHT22;30597;49.628;10.850;2023-04-03T01:07:38;19.40;50.80
44863;DHT22;30597;49.628;10.850;2023-04-03T01:10:07;19.40;50.60
44863;DHT22;30597;49.628;10.850;2023-04-03T01:12:36;19.30;50.70
44863;DHT22;30597;49.628;10.850;2023-04-03T01:15:29;19.30;50.80
44863;DHT22;30597;49.628;10.850;2023-04-03T01:18:00;19.30;50.80
44863;DHT22;30597;49.628;10.850;2023-04-03T01:25:51;19.30;50.80
44863;DHT22;30597;49.628;10.850;2023-04-03T01:31:18;19.20;50.80
44863;DHT22;30597;49.628;10.850;2023-04-03T01:33:45;19.20;50.90
44863;DHT22;30597;49.628;10.850;2023-04-03T01:36:19;19.20;50.90
44863;DHT22;30597;49.628;10.850;2023-04-03T01:38:46;19.20;51.00
44863;DHT22;30597;49.628;10.850;2023-04-03T01:41:11;19.20;50.80
44863;DHT22;30597;49.628;10.850;2023-04-03T01:43:37;19.10;50.70
44863;DHT22;30597;49.628;10.850;2023-04-03T01:46:02;19.10;50.70
44863;DHT22;30597;49.628;10.850;2023-04-03T01:48:28;19.10;50.90
44863;DHT22;30597;49.628;10.850;2023-04-03T01:50:54;19.10;50.90
44863;DHT22;30597;49.628;10.850;2023-04-03T01:53:19;19.10;50.80
44863;DHT22;30597;49.628;10.850;2023-04-03T01:55:45;19.10;50.80
44863;DHT22;30597;49.628;10.850;2023-04-03T01:58:10;19.10;50.90
44863;DHT22;30597;49.628;10.850;2023-04-03T02:00:36;19.10;50.80
44863;DHT22;30597;49.628;10.850;2023-04-03T02:03:02;19.00;50.80
44863;DHT22;30597;49.628;10.850;2023-04-03T02:05:28;19.10;51.00
44863;DHT22;30597;49.628;10.850;2023-04-03T02:07:53;19.00;50.90
44863;DHT22;30597;49.628;10.850;2023-04-03T02:10:19;19.00;50.90
44863;DHT22;30597;49.628;10.850;2023-04-03T02:12:45;19.00;51.00
44863;DHT22;30597;49.628;10.850;2023-04-03T02:15:11;19.00;51.00
44863;DHT22;30597;49.628;10.850;2023-04-03T02:17:36;19.00;51.10
44863;DHT22;30597;49.628;10.850;2023-04-03T02:20:03;19.00;51.00
44863;DHT22;30597;49.628;10.850;2023-04-03T02:22:28;19.00;50.90
44863;DHT22;30597;49.628;10.850;2023-04-03T02:24:54;19.00;51.10
44863;DHT22;30597;49.628;10.850;2023-04-03T02:27:20;18.90;50.90
44863;DHT22;30597;49.628;10.850;2023-04-03T02:29:45;18.90;51.00
44863;DHT22;30597;49.628;10.850;2023-04-03T02:32:11;18.90;50.90
44863;DHT22;30597;49.628;10.850;2023-04-03T02:34:36;18.90;51.00
44863;DHT22;30597;49.628;10.850;2023-04-03T02:37:02;18.90;51.00
44863;DHT22;30597;49.628;10.850;2023-04-03T02:39:27;18.90;51.00
44863;DHT22;30597;49.628;10.850;2023-04-03T02:41:53;18.90;51.10
44863;DHT22;30597;49.628;10.850;2023-04-03T02:44:19;18.90;51.10
44863;DHT22;30597;49.628;10.850;2023-04-03T02:46:44;18.90;51.00
44863;DHT22;30597;49.628;10.850;2023-04-03T02:49:10;18.90;51.10
44863;DHT22;30597;49.628;10.850;2023-04-03T02:51:35;18.90;51.30
44863;DHT22;30597;49.628;10.850;2023-04-03T02:54:01;18.90;51.40
44863;DHT22;30597;49.628;10.850;2023-04-03T02:56:26;18.80;51.40
44863;DHT22;30597;49.628;10.850;2023-04-03T02:58:52;18.80;51.50
44863;DHT22;30597;49.628;10.850;2023-04-03T03:01:18;18.90;51.50
44863;DHT22;30597;49.628;10.850;2023-04-03T03:03:44;18.80;51.70
44863;DHT22;30597;49.628;10.850;2023-04-03T03:06:12;18.90;51.60
44863;DHT22;30597;49.628;10.850;2023-04-03T03:08:38;18.90;51.70
44863;DHT22;30597;49.628;10.850;2023-04-03T03:11:04;18.80;51.60
44863;DHT22;30597;49.628;10.850;2023-04-03T03:13:31;18.80;51.60
44863;DHT22;30597;49.628;10.850;2023-04-03T03:15:57;18.80;51.70
44863;DHT22;30597;49.628;10.850;2023-04-03T03:18:22;18.80;51.70
44863;DHT22;30597;49.628;10.850;2023-04-03T03:20:56;18.80;51.70
44863;DHT22;30597;49.628;10.850;2023-04-03T03:23:23;18.80;51.70
44863;DHT22;30597;49.628;10.850;2023-04-03T03:25:55;18.80;51.80
44863;DHT22;30597;49.628;10.850;2023-04-03T03:28:20;18.70;51.70
44863;DHT22;30597;49.628;10.850;2023-04-03T03:30:46;18.70;51.60
44863;DHT22;30597;49.628;10.850;2023-04-03T03:33:12;18.70;51.70
44863;DHT22;30597;49.628;10.850;2023-04-03T03:35:37;18.70;51.70
44863;DHT22;30597;49.628;10.850;2023-04-03T03:38:03;18.70;51.70
44863;DHT22;30597;49.628;10.850;2023-04-03T03:40:28;18.70;51.70
44863;DHT22;30597;49.628;10.850;2023-04-03T03:42:54;18.70;51.60
44863;DHT22;30597;49.628;10.850;2023-04-03T03:45:20;18.70;51.70
44863;DHT22;30597;49.628;10.850;2023-04-03T03:47:45;18.70;51.70
44863;DHT22;30597;49.628;10.850;2023-04-03T03:50:11;18.60;51.60
44863;DHT22;30597;49.628;10.850;2023-04-03T03:52:37;18.60;51.60
44863;DHT22;30597;49.628;10.850;2023-04-03T03:55:02;18.60;51.60
44863;DHT22;30597;49.628;10.850;2023-04-03T03:57:28;18.60;51.50
44863;DHT22;30597;49.628;10.850;2023-04-03T03:59:54;18.60;51.60
44863;DHT22;30597;49.628;10.850;2023-04-03T04:02:20;18.60;51.70
44863;DHT22;30597;49.628;10.850;2023-04-03T04:04:46;18.60;51.70
44863;DHT22;30597;49.628;10.850;2023-04-03T04:07:11;18.60;51.60
44863;DHT22;30597;49.628;10.850;2023-04-03T04:09:37;18.60;51.60
44863;DHT22;30597;49.628;10.850;2023-04-03T04:12:02;18.60;51.80
44863;DHT22;30597;49.628;10.850;2023-04-03T04:14:28;18.60;51.90
44863;DHT22;30597;49.628;10.850;2023-04-03T04:16:53;18.60;52.00
44863;DHT22;30597;49.628;10.850;2023-04-03T04:19:19;18.60;52.00
44863;DHT22;30597;49.628;10.850;2023-04-03T04:21:45;18.60;51.80
44863;DHT22;30597;49.628;10.850;2023-04-03T04:24:11;18.50;51.80
44863;DHT22;30597;49.628;10.850;2023-04-03T04:26:36;18.50;52.10
44863;DHT22;30597;49.628;10.850;2023-04-03T04:29:02;18.50;51.80
44863;DHT22;30597;49.628;10.850;2023-04-03T04:31:27;18.60;52.30
44863;DHT22;30597;49.628;10.850;2023-04-03T04:33:53;18.60;52.40
44863;DHT22;30597;49.628;10.850;2023-04-03T04:36:19;18.60;52.60
44863;DHT22;30597;49.628;10.850;2023-04-03T04:38:45;18.70;52.80
44863;DHT22;30597;49.628;10.850;2023-04-03T04:41:11;18.80;52.90
44863;DHT22;30597;49.628;10.850;2023-04-03T04:43:37;18.80;52.50
44863;DHT22;30597;49.628;10.850;2023-04-03T04:46:03;18.90;52.50
44863;DHT22;30597;49.628;10.850;2023-04-03T04:48:29;19.00;52.60
44863;DHT22;30597;49.628;10.850;2023-04-03T04:50:55;19.00;52.40
44863;DHT22;30597;49.628;10.850;2023-04-03T04:53:20;19.10;52.00
44863;DHT22;30597;49.628;10.850;2023-04-03T04:55:46;19.00;51.40
44863;DHT22;30597;49.628;10.850;2023-04-03T04:58:11;19.10;51.60
44863;DHT22;30597;49.628;10.850;2023-04-03T05:00:37;19.10;51.50
44863;DHT22;30597;49.628;10.850;2023-04-03T05:03:03;19.10;51.50
44863;DHT22;30597;49.628;10.850;2023-04-03T05:05:28;19.10;51.40
44863;DHT22;30597;49.628;10.850;2023-04-03T05:07:54;19.10;51.40
44863;DHT22;30597;49.628;10.850;2023-04-03T05:10:19;19.10;51.20
44863;DHT22;30597;49.628;10.850;2023-04-03T05:12:45;19.00;51.70
44863;DHT22;30597;49.628;10.850;2023-04-03T05:15:11;19.00;52.10
44863;DHT22;30597;49.628;10.850;2023-04-03T05:17:37;19.10;51.80
44863;DHT22;30597;49.628;10.850;2023-04-03T05:20:03;19.00;52.20
44863;DHT22;30597;49.628;10.850;2023-04-03T05:22:30;19.10;52.70
44863;DHT22;30597;49.628;10.850;2023-04-03T05:24:56;19.00;52.90
44863;DHT22;30597;49.628;10.850;2023-04-03T05:27:22;19.10;53.00
44863;DHT22;30597;49.628;10.850;2023-04-03T05:29:49;19.10;52.90
44863;DHT22;30597;49.628;10.850;2023-04-03T05:32:15;19.10;52.80
44863;DHT22;30597;49.628;10.850;2023-04-03T05:34:41;19.10;52.40
44863;DHT22;30597;49.628;10.850;2023-04-03T05:37:06;19.10;52.20
44863;DHT22;30597;49.628;10.850;2023-04-03T05:39:32;19.00;51.90
44863;DHT22;30597;49.628;10.850;2023-04-03T05:41:58;19.00;51.60
44863;DHT22;30597;49.628;10.850;2023-04-03T05:44:23;19.10;51.50
44863;DHT22;30597;49.628;10.850;2023-04-03T05:46:49;19.10;51.50
44863;DHT22;30597;49.628;10.850;2023-04-03T05:49:15;19.10;51.40
44863;DHT22;30597;49.628;10.850;2023-04-03T05:51:40;19.10;51.20
44863;DHT22;30597;49.628;10.850;2023-04-03T05:54:13;19.10;50.90
44863;DHT22;30597;49.628;10.850;2023-04-03T05:56:39;19.10;50.80
44863;DHT22;30597;49.628;10.850;2023-04-03T05:59:05;19.10;50.70
44863;DHT22;30597;49.628;10.850;2023-04-03T06:01:30;19.10;50.40
44863;DHT22;30597;49.628;10.850;2023-04-03T06:03:56;19.20;50.30
44863;DHT22;30597;49.628;10.850;2023-04-03T06:06:23;19.10;49.90
44863;DHT22;30597;49.628;10.850;2023-04-03T06:08:49;19.10;50.00
44863;DHT22;30597;49.628;10.850;2023-04-03T06:11:15;19.30;50.00
44863;DHT22;30597;49.628;10.850;2023-04-03T06:13:41;19.40;49.70
44863;DHT22;30597;49.628;10.850;2023-04-03T06:16:10;19.50;49.90
44863;DHT22;30597;49.628;10.850;2023-04-03T06:18:37;19.70;50.10
44863;DHT22;30597;49.628;10.850;2023-04-03T06:21:03;19.80;50.60
44863;DHT22;30597;49.628;10.850;2023-04-03T06:23:30;20.00;50.50
44863;DHT22;30597;49.628;10.850;2023-04-03T06:25:55;20.10;50.30
44863;DHT22;30597;49.628;10.850;2023-04-03T06:28:21;20.10;50.30
44863;DHT22;30597;49.628;10.850;2023-04-03T06:30:46;20.20;49.80
44863;DHT22;30597;49.628;10.850;2023-04-03T06:33:12;20.20;49.60
44863;DHT22;30597;49.628;10.850;2023-04-03T06:35:37;20.20;49.50
44863;DHT22;30597;49.628;10.850;2023-04-03T06:38:04;20.20;49.40
44863;DHT22;30597;49.628;10.850;2023-04-03T06:40:34;20.20;49.20
44863;DHT22;30597;49.628;10.850;2023-04-03T06:43:01;20.30;49.20
44863;DHT22;30597;49.628;10.850;2023-04-03T06:45:26;20.30;49.00
44863;DHT22;30597;49.628;10.850;2023-04-03T06:47:53;20.30;48.90
44863;DHT22;30597;49.628;10.850;2023-04-03T06:50:19;20.30;48.80
44863;DHT22;30597;49.628;10.850;2023-04-03T06:52:45;20.40;48.80
44863;DHT22;30597;49.628;10.850;2023-04-03T06:55:11;20.40;48.60
44863;DHT22;30597;49.628;10.850;2023-04-03T06:57:36;20.40;48.50
44863;DHT22;30597;49.628;10.850;2023-04-03T07:00:04;20.40;48.40
44863;DHT22;30597;49.628;10.850;2023-04-03T07:02:30;20.50;48.20
44863;DHT22;30597;49.628;10.850;2023-04-03T07:04:56;20.40;47.80
44863;DHT22;30597;49.628;10.850;2023-04-03T07:07:22;20.50;47.80
44863;DHT22;30597;49.628;10.850;2023-04-03T07:09:47;20.50;47.70
44863;DHT22;30597;49.628;10.850;2023-04-03T07:12:13;20.50;47.30
44863;DHT22;30597;49.628;10.850;2023-04-03T07:14:39;20.50;47.40
44863;DHT22;30597;49.628;10.850;2023-04-03T07:17:05;20.50;47.50
44863;DHT22;30597;49.628;10.850;2023-04-03T07:19:30;20.50;47.30
44863;DHT22;30597;49.628;10.850;2023-04-03T07:21:56;20.60;47.50
44863;DHT22;30597;49.628;10.850;2023-04-03T07:24:22;20.60;47.40
44863;DHT22;30597;49.628;10.850;2023-04-03T07:26:52;20.60;47.40
44863;DHT22;30597;49.628;10.850;2023-04-03T07:29:17;20.70;47.50
44863;DHT22;30597;49.628;10.850;2023-04-03T07:31:43;20.70;47.30
44863;DHT22;30597;49.628;10.850;2023-04-03T07:34:10;20.70;47.30
44863;DHT22;30597;49.628;10.850;2023-04-03T07:36:36;20.70;47.20
44863;DHT22;30597;49.628;10.850;2023-04-03T07:39:01;20.60;47.00
44863;DHT22;30597;49.628;10.850;2023-04-03T07:41:27;20.60;46.70
44863;DHT22;30597;49.628;10.850;2023-04-03T07:43:54;20.60;46.90
44863;DHT22;30597;49.628;10.850;2023-04-03T07:46:20;20.60;46.90
44863;DHT22;30597;49.628;10.850;2023-04-03T07:48:46;20.60;47.00
44863;DHT22;30597;49.628;10.850;2023-04-03T07:51:11;20.60;47.00
44863;DHT22;30597;49.628;10.850;2023-04-03T07:53:38;20.60;47.00
44863;DHT22;30597;49.628;10.850;2023-04-03T07:56:03;20.60;47.00
44863;DHT22;30597;49.628;10.850;2023-04-03T07:58:29;20.50;46.90
44863;DHT22;30597;49.628;10.850;2023-04-03T08:00:55;20.50;46.90
44863;DHT22;30597;49.628;10.850;2023-04-03T08:03:21;20.40;46.90
44863;DHT22;30597;49.628;10.850;2023-04-03T08:05:48;20.40;46.80
44863;DHT22;30597;49.628;10.850;2023-04-03T08:08:17;20.30;47.00
44863;DHT22;30597;49.628;10.850;2023-04-03T08:10:43;20.30;47.10
44863;DHT22;30597;49.628;10.850;2023-04-03T08:13:09;20.20;46.90
44863;DHT22;30597;49.628;10.850;2023-04-03T08:15:35;20.10;46.70
44863;DHT22;30597;49.628;10.850;2023-04-03T08:18:02;20.00;46.80
44863;DHT22;30597;49.628;10.850;2023-04-03T08:20:28;20.00;46.70
44863;DHT22;30597;49.628;10.850;2023-04-03T08:22:54;19.90;46.40
44863;DHT22;30597;49.628;10.850;2023-04-03T08:25:20;19.90;46.80
44863;DHT22;30597;49.628;10.850;2023-04-03T08:27:46;19.90;46.70
44863;DHT22;30597;49.628;10.850;2023-04-03T08:30:12;20.00;47.20
44863;DHT22;30597;49.628;10.850;2023-04-03T08:32:38;20.10;47.10
44863;DHT22;30597;49.628;10.850;2023-04-03T08:35:04;20.10;46.90
44863;DHT22;30597;49.628;10.850;2023-04-03T08:37:30;20.30;46.90
44863;DHT22;30597;49.628;10.850;2023-04-03T08:39:56;20.30;46.80
44863;DHT22;30597;49.628;10.850;2023-04-03T08:45:22;20.50;46.70
44863;DHT22;30597;49.628;10.850;2023-04-03T08:50:43;20.60;46.30
44863;DHT22;30597;49.628;10.850;2023-04-03T08:53:19;20.60;46.20
44863;DHT22;30597;49.628;10.850;2023-04-03T08:55:50;20.70;46.30
44863;DHT22;30597;49.628;10.850;2023-04-03T08:58:25;20.70;46.10
44863;DHT22;30597;49.628;10.850;2023-04-03T09:01:00;20.70;46.20
44863;DHT22;30597;49.628;10.850;2023-04-03T09:03:33;20.80;46.10
44863;DHT22;30597;49.628;10.850;2023-04-03T09:14:02;20.80;46.00
44863;DHT22;30597;49.628;10.850;2023-04-03T09:22:19;20.80;46.00
44863;DHT22;30597;49.628;10.850;2023-04-03T09:24:50;20.80;46.00
44863;DHT22;30597;49.628;10.850;2023-04-03T09:27:17;20.70;45.90
44863;DHT22;30597;49.628;10.850;2023-04-03T09:29:44;20.70;45.90
44863;DHT22;30597;49.628;10.850;2023-04-03T09:32:37;20.70;46.00
44863;DHT22;30597;49.628;10.850;2023-04-03T09:35:36;20.60;45.90
44863;DHT22;30597;49.628;10.850;2023-04-03T09:40:39;20.50;46.10
44863;DHT22;30597;49.628;10.850;2023-04-03T09:43:30;20.40;46.00
44863;DHT22;30597;49.628;10.850;2023-04-03T09:46:16;20.30;45.60
44863;DHT22;30597;49.628;10.850;2023-04-03T09:49:04;20.20;45.20
44863;DHT22;30597;49.628;10.850;2023-04-03T09:51:31;20.20;46.70
44863;DHT22;30597;49.628;10.850;2023-04-03T09:53:57;20.10;46.30
44863;DHT22;30597;49.628;10.850;2023-04-03T09:56:27;20.10;46.30
44863;DHT22;30597;49.628;10.850;2023-04-03T10:01:33;20.00;46.40
44863;DHT22;30597;49.628;10.850;2023-04-03T10:04:05;20.10;46.50
44863;DHT22;30597;49.628;10.850;2023-04-03T10:06:34;20.20;46.40
44863;DHT22;30597;49.628;10.850;2023-04-03T10:09:15;20.20;46.20
44863;DHT22;30597;49.628;10.850;2023-04-03T10:12:05;20.40;46.20
44863;DHT22;30597;49.628;10.850;2023-04-03T10:14:36;20.40;46.00
44863;DHT22;30597;49.628;10.850;2023-04-03T10:17:13;20.50;45.90
44863;DHT22;30597;49.628;10.850;2023-04-03T10:19:53;20.60;45.20
44863;DHT22;30597;49.628;10.850;2023-04-03T10:25:18;20.70;45.60
44863;DHT22;30597;49.628;10.850;2023-04-03T10:28:15;20.80;45.60
44863;DHT22;30597;49.628;10.850;2023-04-03T10:44:59;20.90;45.40
44863;DHT22;30597;49.628;10.850;2023-04-03T10:48:05;20.90;45.40
44863;DHT22;30597;49.628;10.850;2023-04-03T10:56:18;20.80;45.40
44863;DHT22;30597;49.628;10.850;2023-04-03T10:58:48;20.70;45.50
44863;DHT22;30597;49.628;10.850;2023-04-03T11:01:21;20.70;45.40
44863;DHT22;30597;49.628;10.850;2023-04-03T11:03:57;20.60;45.50
44863;DHT22;30597;49.628;10.850;2023-04-03T11:06:27;20.60;45.40
44863;DHT22;30597;49.628;10.850;2023-04-03T11:09:00;20.50;45.60
44863;DHT22;30597;49.628;10.850;2023-04-03T11:11:34;20.50;45.30
44863;DHT22;30597;49.628;10.850;2023-04-03T11:14:28;20.50;45.80
44863;DHT22;30597;49.628;10.850;2023-04-03T11:20:09;20.30;45.80
44863;DHT22;30597;49.628;10.850;2023-04-03T11:22:41;20.30;45.90
44863;DHT22;30597;49.628;10.850;2023-04-03T11:27:46;20.20;45.90
44863;DHT22;30597;49.628;10.850;2023-04-03T11:30:46;20.20;45.90
44863;DHT22;30597;49.628;10.850;2023-04-03T11:35:47;20.20;46.00
44863;DHT22;30597;49.628;10.850;2023-04-03T11:38:21;20.30;46.00
44863;DHT22;30597;49.628;10.850;2023-04-03T11:40:49;20.40;45.80
44863;DHT22;30597;49.628;10.850;2023-04-03T11:45:52;20.60;45.20
44863;DHT22;30597;49.628;10.850;2023-04-03T11:51:39;20.80;45.30
44863;DHT22;30597;49.628;10.850;2023-04-03T11:53:46;20.80;45.20
44863;DHT22;30597;49.628;10.850;2023-04-03T12:01:47;20.90;45.00
44863;DHT22;30597;49.628;10.850;2023-04-03T12:04:15;21.00;45.00
44863;DHT22;30597;49.628;10.850;2023-04-03T12:06:42;20.90;44.60
44863;DHT22;30597;49.628;10.850;2023-04-03T12:11:53;20.90;44.40
44863;DHT22;30597;49.628;10.850;2023-04-03T12:14:22;21.00;44.90
44863;DHT22;30597;49.628;10.850;2023-04-03T12:16:49;21.00;44.80
44863;DHT22;30597;49.628;10.850;2023-04-03T12:27:09;20.90;44.80
44863;DHT22;30597;49.628;10.850;2023-04-03T12:29:50;20.90;44.70
44863;DHT22;30597;49.628;10.850;2023-04-03T12:38:15;20.60;44.70
44863;DHT22;30597;49.628;10.850;2023-04-03T12:46:19;20.50;45.10
44863;DHT22;30597;49.628;10.850;2023-04-03T12:48:56;20.50;45.20
44863;DHT22;30597;49.628;10.850;2023-04-03T12:51:33;20.40;45.20
44863;DHT22;30597;49.628;10.850;2023-04-03T12:54:04;20.40;45.20
44863;DHT22;30597;49.628;10.850;2023-04-03T12:56:38;20.40;44.60
44863;DHT22;30597;49.628;10.850;2023-04-03T12:59:23;20.30;45.20
44863;DHT22;30597;49.628;10.850;2023-04-03T13:01:59;20.30;45.40
44863;DHT22;30597;49.628;10.850;2023-04-03T13:04:27;20.20;45.40
44863;DHT22;30597;49.628;10.850;2023-04-03T13:06:53;20.30;45.50
44863;DHT22;30597;49.628;10.850;2023-04-03T13:14:23;20.40;44.10
44863;DHT22;30597;49.628;10.850;2023-04-03T13:16:59;20.50;45.60
44863;DHT22;30597;49.628;10.850;2023-04-03T13:19:27;20.70;45.00
44863;DHT22;30597;49.628;10.850;2023-04-03T13:21:59;20.70;44.80
44863;DHT22;30597;49.628;10.850;2023-04-03T13:24:28;20.80;44.80
44863;DHT22;30597;49.628;10.850;2023-04-03T13:26:55;20.80;44.60
44863;DHT22;30597;49.628;10.850;2023-04-03T13:29:27;20.90;44.50
44863;DHT22;30597;49.628;10.850;2023-04-03T13:31:55;20.90;44.50
44863;DHT22;30597;49.628;10.850;2023-04-03T13:34:23;21.00;44.30
44863;DHT22;30597;49.628;10.850;2023-04-03T13:37:00;21.00;44.20
44863;DHT22;30597;49.628;10.850;2023-04-03T13:39:29;21.00;44.10
44863;DHT22;30597;49.628;10.850;2023-04-03T13:41:58;21.00;44.30
44863;DHT22;30597;49.628;10.850;2023-04-03T13:44:32;21.00;44.30
44863;DHT22;30597;49.628;10.850;2023-04-03T13:47:19;21.00;44.30
44863;DHT22;30597;49.628;10.850;2023-04-03T13:50:25;21.00;44.30
44863;DHT22;30597;49.628;10.850;2023-04-03T13:53:02;21.10;44.40
44863;DHT22;30597;49.628;10.850;2023-04-03T13:55:32;21.00;44.40
44863;DHT22;30597;49.628;10.850;2023-04-03T13:58:16;20.90;44.30
44863;DHT22;30597;49.628;10.850;2023-04-03T14:00:50;20.90;44.40
44863;DHT22;30597;49.628;10.850;2023-04-03T14:03:30;20.90;44.50
44863;DHT22;30597;49.628;10.850;2023-04-03T14:05:56;20.80;44.20
44863;DHT22;30597;49.628;10.850;2023-04-03T14:08:22;20.70;45.00
44863;DHT22;30597;49.628;10.850;2023-04-03T14:10:49;20.60;44.50
44863;DHT22;30597;49.628;10.850;2023-04-03T14:13:17;20.60;44.80
44863;DHT22;30597;49.628;10.850;2023-04-03T14:15:45;20.60;44.80
44863;DHT22;30597;49.628;10.850;2023-04-03T14:18:13;20.50;44.80
44863;DHT22;30597;49.628;10.850;2023-04-03T14:20:39;20.50;44.80
44863;DHT22;30597;49.628;10.850;2023-04-03T14:23:05;20.40;44.90
44863;DHT22;30597;49.628;10.850;2023-04-03T14:25:31;20.50;45.00
44863;DHT22;30597;49.628;10.850;2023-04-03T14:27:57;20.30;44.80
44863;DHT22;30597;49.628;10.850;2023-04-03T14:30:29;20.30;45.00
44863;DHT22;30597;49.628;10.850;2023-04-03T14:32:56;20.30;45.10
44863;DHT22;30597;49.628;10.850;2023-04-03T14:35:23;20.30;45.10
44863;DHT22;30597;49.628;10.850;2023-04-03T14:37:49;20.30;45.10
44863;DHT22;30597;49.628;10.850;2023-04-03T14:40:23;20.20;45.10
44863;DHT22;30597;49.628;10.850;2023-04-03T14:42:48;20.30;45.10
44863;DHT22;30597;49.628;10.850;2023-04-03T14:45:15;20.40;45.00
44863;DHT22;30597;49.628;10.850;2023-04-03T14:47:48;20.60;45.00
44863;DHT22;30597;49.628;10.850;2023-04-03T14:50:21;20.60;44.80
44863;DHT22;30597;49.628;10.850;2023-04-03T14:52:49;20.70;44.80
44863;DHT22;30597;49.628;10.850;2023-04-03T14:55:16;20.70;44.60
44863;DHT22;30597;49.628;10.850;2023-04-03T14:57:42;20.80;44.60
44863;DHT22;30597;49.628;10.850;2023-04-03T15:00:14;20.80;44.40
44863;DHT22;30597;49.628;10.850;2023-04-03T15:02:40;20.90;44.40
44863;DHT22;30597;49.628;10.850;2023-04-03T15:05:08;20.90;44.40
44863;DHT22;30597;49.628;10.850;2023-04-03T15:07:43;21.00;44.40
44863;DHT22;30597;49.628;10.850;2023-04-03T15:10:20;21.00;44.40
44863;DHT22;30597;49.628;10.850;2023-04-03T15:12:47;20.90;44.00
44863;DHT22;30597;49.628;10.850;2023-04-03T15:15:14;20.90;44.00
44863;DHT22;30597;49.628;10.850;2023-04-03T15:17:40;20.90;44.20
44863;DHT22;30597;49.628;10.850;2023-04-03T15:20:16;21.00;43.60
44863;DHT22;30597;49.628;10.850;2023-04-03T15:22:42;21.00;44.00
44863;DHT22;30597;49.628;10.850;2023-04-03T15:25:09;21.00;44.10
44863;DHT22;30597;49.628;10.850;2023-04-03T15:27:35;21.00;44.10
44863;DHT22;30597;49.628;10.850;2023-04-03T15:30:02;20.90;44.20
44863;DHT22;30597;49.628;10.850;2023-04-03T15:32:27;20.80;44.20
44863;DHT22;30597;49.628;10.850;2023-04-03T15:34:54;20.80;44.30
44863;DHT22;30597;49.628;10.850;2023-04-03T15:37:19;20.80;44.30
44863;DHT22;30597;49.628;10.850;2023-04-03T15:39:45;20.70;44.30
44863;DHT22;30597;49.628;10.850;2023-04-03T15:42:10;20.70;44.40
44863;DHT22;30597;49.628;10.850;2023-04-03T15:44:37;20.70;44.40
44863;DHT22;30597;49.628;10.850;2023-04-03T15:47:03;20.60;44.40
44863;DHT22;30597;49.628;10.850;2023-04-03T15:49:30;20.60;44.40
44863;DHT22;30597;49.628;10.850;2023-04-03T15:51:57;20.50;44.60
44863;DHT22;30597;49.628;10.850;2023-04-03T15:54:23;20.50;44.60
44863;DHT22;30597;49.628;10.850;2023-04-03T15:56:50;20.40;44.60
44863;DHT22;30597;49.628;10.850;2023-04-03T15:59:15;20.30;44.20
44863;DHT22;30597;49.628;10.850;2023-04-03T16:01:41;20.30;44.70
44863;DHT22;30597;49.628;10.850;2023-04-03T16:04:08;20.30;44.70
44863;DHT22;30597;49.628;10.850;2023-04-03T16:06:36;20.30;44.70
44863;DHT22;30597;49.628;10.850;2023-04-03T16:09:03;20.30;44.70
44863;DHT22;30597;49.628;10.850;2023-04-03T16:11:28;20.20;44.60
44863;DHT22;30597;49.628;10.850;2023-04-03T16:13:55;20.30;44.80
44863;DHT22;30597;49.628;10.850;2023-04-03T16:16:21;20.30;44.40
44863;DHT22;30597;49.628;10.850;2023-04-03T16:18:47;20.40;44.30
44863;DHT22;30597;49.628;10.850;2023-04-03T16:21:14;20.50;44.30
44863;DHT22;30597;49.628;10.850;2023-04-03T16:23:41;20.70;44.30
44863;DHT22;30597;49.628;10.850;2023-04-03T16:26:07;20.80;44.00
44863;DHT22;30597;49.628;10.850;2023-04-03T16:28:32;20.90;43.50
44863;DHT22;30597;49.628;10.850;2023-04-03T16:30:58;21.10;43.60
44863;DHT22;30597;49.628;10.850;2023-04-03T16:33:25;21.20;43.50
44863;DHT22;30597;49.628;10.850;2023-04-03T16:35:51;21.30;43.20
44863;DHT22;30597;49.628;10.850;2023-04-03T16:38:17;21.40;42.90
44863;DHT22;30597;49.628;10.850;2023-04-03T16:40:45;21.50;43.00
44863;DHT22;30597;49.628;10.850;2023-04-03T16:43:10;21.60;42.90
44863;DHT22;30597;49.628;10.850;2023-04-03T16:45:36;21.70;42.70
44863;DHT22;30597;49.628;10.850;2023-04-03T16:48:02;21.70;42.50
44863;DHT22;30597;49.628;10.850;2023-04-03T16:50:28;21.70;42.40
44863;DHT22;30597;49.628;10.850;2023-04-03T16:52:53;21.80;42.50
44863;DHT22;30597;49.628;10.850;2023-04-03T16:55:19;21.80;42.40
44863;DHT22;30597;49.628;10.850;2023-04-03T16:57:46;21.90;42.30
44863;DHT22;30597;49.628;10.850;2023-04-03T17:00:12;22.00;42.40
44863;DHT22;30597;49.628;10.850;2023-04-03T17:02:38;21.90;42.30
44863;DHT22;30597;49.628;10.850;2023-04-03T17:05:04;21.90;42.30